Bratislava, Slovakia
Current Conditions -  °F | °C
As of 10:00 PM on Thursday 18 Dec 2014 (Local Time) from LZIB Reporting Station
Broken Clouds Broken Clouds  
Wind Chill:   Ceiling: 6500
Heat Index:   Visibility: 6mi
Dew Point:   Wind: 6mph
Humidity: 87%   Direction: 220°SW
Pressure: 30.03"   Gusts: NA
Location:  48.16°N, 17.13°E
Report Text: LZIB 182000Z 22005KT 9999 FEW030 SCT042 BKN065 07/05 Q1017
Loading
Personal Weather Stations






























Interactive Weather Map New forecast layout! Learn more

10-Day Weather Forecast

Advertisements
Track Severe Weather on mobile